sensor_id;sensor_type;location;lat;lon;timestamp;pressure;altitude;pressure_sealevel;temperature;humidity
3917;BME280;1973;50.518;7.318;2022-09-02T00:01:55;100974.25;;;20.68;53.54
3917;BME280;1973;50.518;7.318;2022-09-02T00:04:24;100977.63;;;20.65;53.98
3917;BME280;1973;50.518;7.318;2022-09-02T00:06:53;100971.75;;;20.62;54.82
3917;BME280;1973;50.518;7.318;2022-09-02T00:09:21;100969.47;;;20.59;54.84
3917;BME280;1973;50.518;7.318;2022-09-02T00:11:49;100965.53;;;20.55;55.55
3917;BME280;1973;50.518;7.318;2022-09-02T00:14:21;100965.25;;;20.51;56.37
3917;BME280;1973;50.518;7.318;2022-09-02T00:16:47;100963.31;;;20.47;56.81
3917;BME280;1973;50.518;7.318;2022-09-02T00:19:21;100965.84;;;20.43;57.32
3917;BME280;1973;50.518;7.318;2022-09-02T00:21:50;100968.34;;;20.39;57.65
3917;BME280;1973;50.518;7.318;2022-09-02T00:24:17;100952.94;;;20.37;57.73
3917;BME280;1973;50.518;7.318;2022-09-02T00:26:44;100961.03;;;20.33;58.35
3917;BME280;1973;50.518;7.318;2022-09-02T00:29:11;100950.66;;;20.29;59.38
3917;BME280;1973;50.518;7.318;2022-09-02T00:31:44;100951.19;;;20.26;60.78
3917;BME280;1973;50.518;7.318;2022-09-02T00:34:10;100950.06;;;20.22;60.49
3917;BME280;1973;50.518;7.318;2022-09-02T00:36:37;100950.63;;;20.19;61.50
3917;BME280;1973;50.518;7.318;2022-09-02T00:39:05;100952.88;;;20.17;61.78
3917;BME280;1973;50.518;7.318;2022-09-02T00:41:34;100947.84;;;20.14;61.25
3917;BME280;1973;50.518;7.318;2022-09-02T00:44:05;100946.41;;;20.11;62.06
3917;BME280;1973;50.518;7.318;2022-09-02T00:46:32;100950.00;;;20.07;62.28
3917;BME280;1973;50.518;7.318;2022-09-02T00:49:07;100946.94;;;20.03;63.05
3917;BME280;1973;50.518;7.318;2022-09-02T00:51:48;100943.28;;;19.98;65.81
3917;BME280;1973;50.518;7.318;2022-09-02T00:54:18;100949.44;;;19.95;64.01
3917;BME280;1973;50.518;7.318;2022-09-02T00:56:47;100946.91;;;19.88;64.96
3917;BME280;1973;50.518;7.318;2022-09-02T00:59:23;100947.16;;;19.86;64.71
3917;BME280;1973;50.518;7.318;2022-09-02T01:01:52;100941.84;;;19.85;64.37
3917;BME280;1973;50.518;7.318;2022-09-02T01:06:48;100939.88;;;19.85;64.97
3917;BME280;1973;50.518;7.318;2022-09-02T01:09:15;100933.19;;;19.86;65.24
3917;BME280;1973;50.518;7.318;2022-09-02T01:11:47;100940.72;;;19.86;65.95
3917;BME280;1973;50.518;7.318;2022-09-02T01:14:15;100938.19;;;19.84;63.99
3917;BME280;1973;50.518;7.318;2022-09-02T01:16:48;100940.72;;;19.86;63.40
3917;BME280;1973;50.518;7.318;2022-09-02T01:19:24;100941.84;;;19.85;61.97
3917;BME280;1973;50.518;7.318;2022-09-02T01:21:53;100939.88;;;19.85;61.18
3917;BME280;1973;50.518;7.318;2022-09-02T01:24:22;100939.34;;;19.88;61.10
3917;BME280;1973;50.518;7.318;2022-09-02T01:26:52;100936.84;;;19.92;60.36
3917;BME280;1973;50.518;7.318;2022-09-02T01:29:19;100938.25;;;19.95;59.93
3917;BME280;1973;50.518;7.318;2022-09-02T01:31:46;100931.28;;;19.97;59.72
3917;BME280;1973;50.518;7.318;2022-09-02T01:34:13;100937.16;;;20.01;59.82
3917;BME280;1973;50.518;7.318;2022-09-02T01:36:41;100927.38;;;20.03;60.38
3917;BME280;1973;50.518;7.318;2022-09-02T01:39:09;100930.47;;;20.02;61.08
3917;BME280;1973;50.518;7.318;2022-09-02T01:41:36;100933.81;;;19.99;62.15
3917;BME280;1973;50.518;7.318;2022-09-02T01:44:04;100932.97;;;19.98;62.38
3917;BME280;1973;50.518;7.318;2022-09-02T01:46:32;100929.59;;;19.96;63.26
3917;BME280;1973;50.518;7.318;2022-09-02T01:48:59;100932.63;;;19.89;64.23
3917;BME280;1973;50.518;7.318;2022-09-02T01:51:26;100930.94;;;19.83;65.53
3917;BME280;1973;50.518;7.318;2022-09-02T01:53:52;100931.75;;;19.79;65.09
3917;BME280;1973;50.518;7.318;2022-09-02T01:56:19;100927.00;;;19.74;65.75
3917;BME280;1973;50.518;7.318;2022-09-02T01:58:45;100921.09;;;19.71;64.88
3917;BME280;1973;50.518;7.318;2022-09-02T02:01:12;100923.06;;;19.65;65.45
3917;BME280;1973;50.518;7.318;2022-09-02T02:03:39;100933.09;;;19.61;65.74
3917;BME280;1973;50.518;7.318;2022-09-02T02:06:15;100923.00;;;19.55;65.17
3917;BME280;1973;50.518;7.318;2022-09-02T02:08:42;100925.78;;;19.50;64.07
3917;BME280;1973;50.518;7.318;2022-09-02T02:11:09;100932.72;;;19.48;63.34
3917;BME280;1973;50.518;7.318;2022-09-02T02:13:36;100935.81;;;19.46;62.68
3917;BME280;1973;50.518;7.318;2022-09-02T02:16:04;100931.88;;;19.42;62.78
3917;BME280;1973;50.518;7.318;2022-09-02T02:18:30;100932.94;;;19.41;62.30
3917;BME280;1973;50.518;7.318;2022-09-02T02:20:57;100942.44;;;19.40;62.32
3917;BME280;1973;50.518;7.318;2022-09-02T02:23:24;100944.09;;;19.41;62.03
3917;BME280;1973;50.518;7.318;2022-09-02T02:25:50;100948.63;;;19.42;62.08
3917;BME280;1973;50.518;7.318;2022-09-02T02:28:18;100939.41;;;19.41;61.77
3917;BME280;1973;50.518;7.318;2022-09-02T02:30:45;100946.34;;;19.39;61.76
3917;BME280;1973;50.518;7.318;2022-09-02T02:33:12;100942.44;;;19.40;61.67
3917;BME280;1973;50.518;7.318;2022-09-02T02:35:40;100939.66;;;19.40;61.52
3917;BME280;1973;50.518;7.318;2022-09-02T02:38:07;100948.03;;;19.40;61.84
3917;BME280;1973;50.518;7.318;2022-09-02T02:40:39;100937.38;;;19.37;61.41
3917;BME280;1973;50.518;7.318;2022-09-02T02:43:06;100947.19;;;19.39;61.61
3917;BME280;1973;50.518;7.318;2022-09-02T02:45:32;100949.09;;;19.34;61.68
3917;BME280;1973;50.518;7.318;2022-09-02T02:47:58;100941.25;;;19.31;61.66
3917;BME280;1973;50.518;7.318;2022-09-02T02:50:25;100936.25;;;19.33;61.63
3917;BME280;1973;50.518;7.318;2022-09-02T02:52:52;100949.63;;;19.31;61.59
3917;BME280;1973;50.518;7.318;2022-09-02T02:55:20;100940.41;;;19.30;61.89
3917;BME280;1973;50.518;7.318;2022-09-02T02:57:48;100943.50;;;19.29;61.77
3917;BME280;1973;50.518;7.318;2022-09-02T03:00:19;100940.38;;;19.25;61.80
3917;BME280;1973;50.518;7.318;2022-09-02T03:02:47;100938.72;;;19.24;61.80
3917;BME280;1973;50.518;7.318;2022-09-02T03:05:16;100943.47;;;19.24;61.95
3917;BME280;1973;50.518;7.318;2022-09-02T03:07:43;100951.25;;;19.22;61.96
3917;BME280;1973;50.518;7.318;2022-09-02T03:10:11;100943.41;;;19.19;62.19
3917;BME280;1973;50.518;7.318;2022-09-02T03:12:38;100938.63;;;19.14;62.18
3917;BME280;1973;50.518;7.318;2022-09-02T03:15:07;100948.38;;;19.07;62.75
3917;BME280;1973;50.518;7.318;2022-09-02T03:17:34;100936.88;;;19.03;63.44
3917;BME280;1973;50.518;7.318;2022-09-02T03:20:00;100941.28;;;18.94;64.02
3917;BME280;1973;50.518;7.318;2022-09-02T03:22:27;100951.25;;;18.85;65.20
3917;BME280;1973;50.518;7.318;2022-09-02T03:24:54;100940.59;;;18.77;66.03
3917;BME280;1973;50.518;7.318;2022-09-02T03:27:20;100941.34;;;18.67;66.12
3917;BME280;1973;50.518;7.318;2022-09-02T03:29:47;100935.44;;;18.59;66.36
3917;BME280;1973;50.518;7.318;2022-09-02T03:32:13;100950.91;;;18.49;67.00
3917;BME280;1973;50.518;7.318;2022-09-02T03:34:40;100941.91;;;18.42;67.30
3917;BME280;1973;50.518;7.318;2022-09-02T03:37:08;100941.88;;;18.37;68.64
3917;BME280;1973;50.518;7.318;2022-09-02T03:39:36;100939.28;;;18.31;70.38
3917;BME280;1973;50.518;7.318;2022-09-02T03:42:03;100942.81;;;18.21;70.88
3917;BME280;1973;50.518;7.318;2022-09-02T03:44:31;100934.63;;;18.10;72.50
3917;BME280;1973;50.518;7.318;2022-09-02T03:46:59;100948.16;;;18.01;74.12
3917;BME280;1973;50.518;7.318;2022-09-02T03:49:27;100936.63;;;17.92;75.30
3917;BME280;1973;50.518;7.318;2022-09-02T03:51:53;100936.25;;;17.84;76.32
3917;BME280;1973;50.518;7.318;2022-09-02T03:54:20;100938.41;;;17.77;76.53
3917;BME280;1973;50.518;7.318;2022-09-02T03:56:46;100934.38;;;17.68;77.17
3917;BME280;1973;50.518;7.318;2022-09-02T03:59:13;100933.97;;;17.59;78.08
3917;BME280;1973;50.518;7.318;2022-09-02T04:01:39;100933.91;;;17.54;78.96
3917;BME280;1973;50.518;7.318;2022-09-02T04:04:06;100936.03;;;17.47;80.00
3917;BME280;1973;50.518;7.318;2022-09-02T04:06:33;100933.16;;;17.42;80.54
3917;BME280;1973;50.518;7.318;2022-09-02T04:09:00;100930.81;;;17.34;81.53
3917;BME280;1973;50.518;7.318;2022-09-02T04:11:27;100932.38;;;17.25;81.88
3917;BME280;1973;50.518;7.318;2022-09-02T04:13:53;100931.72;;;17.18;82.72
3917;BME280;1973;50.518;7.318;2022-09-02T04:16:22;100928.53;;;17.09;83.56
3917;BME280;1973;50.518;7.318;2022-09-02T04:18:56;100936.78;;;17.04;84.29
3917;BME280;1973;50.518;7.318;2022-09-02T04:21:24;100940.59;;;16.98;84.69
3917;BME280;1973;50.518;7.318;2022-09-02T04:23:50;100941.94;;;16.95;85.42
3917;BME280;1973;50.518;7.318;2022-09-02T04:26:19;100934.94;;;16.93;85.61
3917;BME280;1973;50.518;7.318;2022-09-02T04:28:46;100937.38;;;16.89;85.73
3917;BME280;1973;50.518;7.318;2022-09-02T04:31:16;100942.94;;;16.89;85.68
3917;BME280;1973;50.518;7.318;2022-09-02T04:33:44;100939.59;;;16.87;85.99
3917;BME280;1973;50.518;7.318;2022-09-02T04:36:12;100938.75;;;16.87;85.78
3917;BME280;1973;50.518;7.318;2022-09-02T04:38:40;100943.75;;;16.85;86.72
3917;BME280;1973;50.518;7.318;2022-09-02T04:41:13;100940.63;;;16.81;87.44
3917;BME280;1973;50.518;7.318;2022-09-02T04:43:40;100941.03;;;16.73;87.62
3917;BME280;1973;50.518;7.318;2022-09-02T04:46:09;100939.59;;;16.71;87.90
3917;BME280;1973;50.518;7.318;2022-09-02T04:48:37;100941.19;;;16.67;88.07
3917;BME280;1973;50.518;7.318;2022-09-02T04:51:15;100942.53;;;16.64;89.39
3917;BME280;1973;50.518;7.318;2022-09-02T04:53:43;100942.47;;;16.59;89.08
3917;BME280;1973;50.518;7.318;2022-09-02T04:56:13;100940.16;;;16.56;89.25
3917;BME280;1973;50.518;7.318;2022-09-02T04:58:41;100948.13;;;16.52;89.85
3917;BME280;1973;50.518;7.318;2022-09-02T05:01:15;100942.34;;;16.54;89.92
3917;BME280;1973;50.518;7.318;2022-09-02T05:03:43;100950.06;;;16.52;89.98
3917;BME280;1973;50.518;7.318;2022-09-02T05:06:12;100948.91;;;16.48;90.84
3917;BME280;1973;50.518;7.318;2022-09-02T05:08:39;100954.72;;;16.46;90.88
3917;BME280;1973;50.518;7.318;2022-09-02T05:11:12;100954.09;;;16.44;91.85
3917;BME280;1973;50.518;7.318;2022-09-02T05:13:40;100948.19;;;16.41;91.62
3917;BME280;1973;50.518;7.318;2022-09-02T05:16:07;100953.19;;;16.39;92.26
3917;BME280;1973;50.518;7.318;2022-09-02T05:18:33;100948.97;;;16.36;92.80
3917;BME280;1973;50.518;7.318;2022-09-02T05:21:04;100956.47;;;16.36;94.03
3917;BME280;1973;50.518;7.318;2022-09-02T05:23:31;100949.94;;;16.30;94.25
3917;BME280;1973;50.518;7.318;2022-09-02T05:25:58;100957.72;;;16.28;94.55
3917;BME280;1973;50.518;7.318;2022-09-02T05:28:24;100949.38;;;16.28;94.94
3917;BME280;1973;50.518;7.318;2022-09-02T05:30:51;100953.50;;;16.26;95.73
3917;BME280;1973;50.518;7.318;2022-09-02T05:33:17;100955.66;;;16.24;96.32
3917;BME280;1973;50.518;7.318;2022-09-02T05:35:43;100954.25;;;16.21;96.71
3917;BME280;1973;50.518;7.318;2022-09-02T05:38:15;100957.03;;;16.21;97.01
3917;BME280;1973;50.518;7.318;2022-09-02T05:40:42;100957.03;;;16.21;97.29
3917;BME280;1973;50.518;7.318;2022-09-02T05:43:08;100955.09;;;16.22;97.59
3917;BME280;1973;50.518;7.318;2022-09-02T05:45:37;100948.91;;;16.20;98.64
3917;BME280;1973;50.518;7.318;2022-09-02T05:48:05;100947.22;;;16.19;99.05
3917;BME280;1973;50.518;7.318;2022-09-02T05:50:51;100951.13;;;16.18;99.57
3917;BME280;1973;50.518;7.318;2022-09-02T05:53:23;100950.28;;;16.17;99.57
3917;BME280;1973;50.518;7.318;2022-09-02T05:55:52;100943.03;;;16.16;100.00
3917;BME280;1973;50.518;7.318;2022-09-02T05:58:18;100943.88;;;16.17;100.00
3917;BME280;1973;50.518;7.318;2022-09-02T06:00:45;100948.34;;;16.18;100.00
3917;BME280;1973;50.518;7.318;2022-09-02T06:03:11;100952.56;;;16.20;100.00
3917;BME280;1973;50.518;7.318;2022-09-02T06:05:38;100954.25;;;16.21;100.00
3917;BME280;1973;50.518;7.318;2022-09-02T06:08:06;100940.69;;;16.25;100.00
3917;BME280;1973;50.518;7.318;2022-09-02T06:10:32;100944.06;;;16.27;100.00
3917;BME280;1973;50.518;7.318;2022-09-02T06:12:59;100945.50;;;16.29;100.00
3917;BME280;1973;50.518;7.318;2022-09-02T06:15:25;100952.84;;;16.35;100.00
3917;BME280;1973;50.518;7.318;2022-09-02T06:17:53;100949.31;;;16.40;100.00
3917;BME280;1973;50.518;7.318;2022-09-02T06:20:24;100953.84;;;16.46;100.00
3917;BME280;1973;50.518;7.318;2022-09-02T06:22:51;100947.28;;;16.52;100.00
3917;BME280;1973;50.518;7.318;2022-09-02T06:25:17;100946.06;;;16.60;100.00
3917;BME280;1973;50.518;7.318;2022-09-02T06:27:46;100938.66;;;16.65;100.00
3917;BME280;1973;50.518;7.318;2022-09-02T06:30:12;100955.78;;;16.74;100.00
3917;BME280;1973;50.518;7.318;2022-09-02T06:32:39;100942.28;;;16.82;100.00
3917;BME280;1973;50.518;7.318;2022-09-02T06:35:06;100943.56;;;16.91;100.00
3917;BME280;1973;50.518;7.318;2022-09-02T06:37:33;100940.94;;;17.01;100.00
3917;BME280;1973;50.518;7.318;2022-09-02T06:39:59;100943.84;;;17.12;100.00
3917;BME280;1973;50.518;7.318;2022-09-02T06:42:26;100934.00;;;17.21;100.00
3917;BME280;1973;50.518;7.318;2022-09-02T06:44:52;100941.13;;;17.33;100.00
3917;BME280;1973;50.518;7.318;2022-09-02T06:47:19;100944.91;;;17.44;100.00
3917;BME280;1973;50.518;7.318;2022-09-02T06:49:45;100943.09;;;17.55;100.00
3917;BME280;1973;50.518;7.318;2022-09-02T06:52:12;100943.00;;;17.66;100.00
3917;BME280;1973;50.518;7.318;2022-09-02T06:54:39;100943.13;;;17.76;100.00
3917;BME280;1973;50.518;7.318;2022-09-02T06:57:05;100939.38;;;17.87;98.83
3917;BME280;1973;50.518;7.318;2022-09-02T06:59:32;100931.72;;;17.99;97.75
3917;BME280;1973;50.518;7.318;2022-09-02T07:01:58;100937.97;;;18.12;95.89
3917;BME280;1973;50.518;7.318;2022-09-02T07:04:25;100929.69;;;18.22;94.14
3917;BME280;1973;50.518;7.318;2022-09-02T07:07:10;100928.69;;;18.33;91.57
3917;BME280;1973;50.518;7.318;2022-09-02T07:09:37;100919.34;;;18.44;89.12
3917;BME280;1973;50.518;7.318;2022-09-02T07:12:04;100913.63;;;18.56;87.61
3917;BME280;1973;50.518;7.318;2022-09-02T07:14:36;100914.03;;;18.69;85.30
3917;BME280;1973;50.518;7.318;2022-09-02T07:17:03;100914.66;;;18.76;84.24
3917;BME280;1973;50.518;7.318;2022-09-02T07:19:30;100907.44;;;18.85;82.64
3917;BME280;1973;50.518;7.318;2022-09-02T07:21:57;100908.34;;;18.96;82.54
3917;BME280;1973;50.518;7.318;2022-09-02T07:24:23;100912.03;;;19.02;80.80
3917;BME280;1973;50.518;7.318;2022-09-02T07:26:50;100905.38;;;19.08;79.11
3917;BME280;1973;50.518;7.318;2022-09-02T07:29:21;100914.34;;;19.10;77.76
3917;BME280;1973;50.518;7.318;2022-09-02T07:31:48;100900.44;;;19.20;77.06
3917;BME280;1973;50.518;7.318;2022-09-02T07:34:16;100901.31;;;19.30;76.46
3917;BME280;1973;50.518;7.318;2022-09-02T07:36:43;100899.69;;;19.34;74.85
3917;BME280;1973;50.518;7.318;2022-09-02T07:39:12;100886.94;;;19.43;74.34
3917;BME280;1973;50.518;7.318;2022-09-02T07:41:40;100897.59;;;19.57;74.04
3917;BME280;1973;50.518;7.318;2022-09-02T07:44:07;100901.78;;;19.59;71.45
3917;BME280;1973;50.518;7.318;2022-09-02T07:46:35;100898.44;;;19.57;70.84
3917;BME280;1973;50.518;7.318;2022-09-02T07:49:07;100900.38;;;19.57;68.01
3917;BME280;1973;50.518;7.318;2022-09-02T07:51:38;100895.66;;;19.67;68.56
3917;BME280;1973;50.518;7.318;2022-09-02T07:54:07;100892.38;;;19.80;68.69
3917;BME280;1973;50.518;7.318;2022-09-02T07:56:34;100893.50;;;19.89;67.96
3917;BME280;1973;50.518;7.318;2022-09-02T07:59:01;100889.03;;;19.88;67.39
3917;BME280;1973;50.518;7.318;2022-09-02T08:01:28;100882.34;;;20.00;66.70
3917;BME280;1973;50.518;7.318;2022-09-02T08:03:55;100881.81;;;20.03;66.04
3917;BME280;1973;50.518;7.318;2022-09-02T08:06:24;100880.13;;;20.07;65.32
3917;BME280;1973;50.518;7.318;2022-09-02T08:09:02;100880.72;;;20.14;64.96
3917;BME280;1973;50.518;7.318;2022-09-02T08:11:29;100885.75;;;20.17;64.02
3917;BME280;1973;50.518;7.318;2022-09-02T08:13:57;100880.16;;;20.17;63.93
3917;BME280;1973;50.518;7.318;2022-09-02T08:16:24;100882.44;;;20.25;63.92
3917;BME280;1973;50.518;7.318;2022-09-02T08:18:51;100879.94;;;20.33;63.25
3917;BME280;1973;50.518;7.318;2022-09-02T08:21:17;100870.16;;;20.51;63.00
3917;BME280;1973;50.518;7.318;2022-09-02T08:23:44;100878.56;;;20.61;62.38
3917;BME280;1973;50.518;7.318;2022-09-02T08:26:15;100877.44;;;20.72;61.64
3917;BME280;1973;50.518;7.318;2022-09-02T08:28:43;100878.25;;;20.78;60.77
3917;BME280;1973;50.518;7.318;2022-09-02T08:31:09;100874.06;;;20.91;60.71
3917;BME280;1973;50.518;7.318;2022-09-02T08:33:36;100877.97;;;20.89;60.19
3917;BME280;1973;50.518;7.318;2022-09-02T08:36:04;100876.25;;;21.04;59.70
3917;BME280;1973;50.518;7.318;2022-09-02T08:38:32;100879.91;;;21.14;59.67
3917;BME280;1973;50.518;7.318;2022-09-02T08:40:59;100861.94;;;21.30;59.10
3917;BME280;1973;50.518;7.318;2022-09-02T08:43:31;100868.09;;;21.32;56.81
3917;BME280;1973;50.518;7.318;2022-09-02T08:46:04;100868.91;;;21.38;57.01
3917;BME280;1973;50.518;7.318;2022-09-02T08:48:40;100859.66;;;21.43;55.51
3917;BME280;1973;50.518;7.318;2022-09-02T08:54:05;100863.28;;;21.48;53.46
3917;BME280;1973;50.518;7.318;2022-09-02T08:56:33;100864.06;;;21.59;54.68
3917;BME280;1973;50.518;7.318;2022-09-02T08:58:59;100862.63;;;21.66;53.89
3917;BME280;1973;50.518;7.318;2022-09-02T09:06:54;100857.47;;;21.89;51.34
3917;BME280;1973;50.518;7.318;2022-09-02T09:12:53;100845.56;;;22.12;50.44
3917;BME280;1973;50.518;7.318;2022-09-02T09:15:24;100847.94;;;22.33;50.57
3917;BME280;1973;50.518;7.318;2022-09-02T09:18:00;100838.53;;;22.53;50.21
3917;BME280;1973;50.518;7.318;2022-09-02T09:20:36;100841.81;;;22.60;48.58
3917;BME280;1973;50.518;7.318;2022-09-02T09:23:42;100843.63;;;22.80;46.80
3917;BME280;1973;50.518;7.318;2022-09-02T09:26:11;100839.28;;;22.93;47.83
3917;BME280;1973;50.518;7.318;2022-09-02T09:28:47;100832.06;;;23.10;46.22
3917;BME280;1973;50.518;7.318;2022-09-02T09:31:18;100841.22;;;23.21;46.25
3917;BME280;1973;50.518;7.318;2022-09-02T09:34:05;100839.44;;;23.30;44.04
3917;BME280;1973;50.518;7.318;2022-09-02T09:39:17;100828.66;;;23.42;43.82
3917;BME280;1973;50.518;7.318;2022-09-02T09:41:45;100823.41;;;23.54;44.96
3917;BME280;1973;50.518;7.318;2022-09-02T09:44:45;100818.97;;;23.72;42.83
3917;BME280;1973;50.518;7.318;2022-09-02T09:49:54;100808.94;;;24.03;43.45
3917;BME280;1973;50.518;7.318;2022-09-02T09:52:31;100811.81;;;24.17;42.71
3917;BME280;1973;50.518;7.318;2022-09-02T09:55:14;100809.47;;;23.87;41.20
3917;BME280;1973;50.518;7.318;2022-09-02T09:57:49;100809.31;;;23.97;41.63
3917;BME280;1973;50.518;7.318;2022-09-02T10:00:30;100792.69;;;24.19;41.05
3917;BME280;1973;50.518;7.318;2022-09-02T10:03:00;100793.63;;;24.28;40.17
3917;BME280;1973;50.518;7.318;2022-09-02T10:05:37;100800.41;;;24.46;39.46
3917;BME280;1973;50.518;7.318;2022-09-02T10:08:18;100786.41;;;24.54;38.31
3917;BME280;1973;50.518;7.318;2022-09-02T10:10:59;100796.25;;;24.57;37.81
3917;BME280;1973;50.518;7.318;2022-09-02T10:13:31;100789.38;;;24.63;38.09
3917;BME280;1973;50.518;7.318;2022-09-02T10:27:43;100776.88;;;25.78;35.42
3917;BME280;1973;50.518;7.318;2022-09-02T10:30:19;100755.75;;;25.89;35.45
3917;BME280;1973;50.518;7.318;2022-09-02T10:35:29;100756.06;;;26.10;35.79
3917;BME280;1973;50.518;7.318;2022-09-02T10:41:01;100751.97;;;26.16;34.99
3917;BME280;1973;50.518;7.318;2022-09-02T10:46:24;100741.41;;;26.22;35.73
3917;BME280;1973;50.518;7.318;2022-09-02T10:49:08;100750.88;;;26.03;35.38
3917;BME280;1973;50.518;7.318;2022-09-02T10:52:12;100732.84;;;26.13;34.71
3917;BME280;1973;50.518;7.318;2022-09-02T10:57:33;100725.59;;;26.74;34.49
3917;BME280;1973;50.518;7.318;2022-09-02T11:00:11;100725.97;;;26.81;33.93
3917;BME280;1973;50.518;7.318;2022-09-02T11:05:28;100716.00;;;27.23;34.36
3917;BME280;1973;50.518;7.318;2022-09-02T11:08:05;100700.28;;;27.56;33.24
3917;BME280;1973;50.518;7.318;2022-09-02T11:10:42;100699.28;;;27.78;32.91
3917;BME280;1973;50.518;7.318;2022-09-02T11:13:20;100699.63;;;27.85;31.64
3917;BME280;1973;50.518;7.318;2022-09-02T11:15:59;100695.94;;;27.76;31.79
3917;BME280;1973;50.518;7.318;2022-09-02T11:18:36;100698.97;;;27.71;30.45
3917;BME280;1973;50.518;7.318;2022-09-02T11:24:30;100690.97;;;27.90;31.74
3917;BME280;1973;50.518;7.318;2022-09-02T11:27:23;100671.63;;;28.09;29.29
3917;BME280;1973;50.518;7.318;2022-09-02T11:30:11;100672.63;;;28.13;30.05
3917;BME280;1973;50.518;7.318;2022-09-02T11:33:04;100668.84;;;28.56;29.00
3917;BME280;1973;50.518;7.318;2022-09-02T11:35:37;100668.41;;;28.83;29.65
3917;BME280;1973;50.518;7.318;2022-09-02T11:49:13;100667.25;;;29.13;27.29
3917;BME280;1973;50.518;7.318;2022-09-02T11:54:38;100670.59;;;29.15;26.71
3917;BME280;1973;50.518;7.318;2022-09-02T11:57:11;100655.88;;;28.92;26.80
3917;BME280;1973;50.518;7.318;2022-09-02T12:02:38;100665.69;;;28.95;26.27
3917;BME280;1973;50.518;7.318;2022-09-02T12:07:56;100655.03;;;29.21;27.29
3917;BME280;1973;50.518;7.318;2022-09-02T12:13:06;100653.44;;;29.12;27.08
3917;BME280;1973;50.518;7.318;2022-09-02T12:15:35;100650.06;;;28.89;27.20
3917;BME280;1973;50.518;7.318;2022-09-02T12:18:27;100641.97;;;28.99;26.70
3917;BME280;1973;50.518;7.318;2022-09-02T12:26:27;100650.50;;;28.99;26.67
3917;BME280;1973;50.518;7.318;2022-09-02T12:31:49;100628.69;;;29.62;26.93
3917;BME280;1973;50.518;7.318;2022-09-02T12:41:53;100627.34;;;29.80;26.26
3917;BME280;1973;50.518;7.318;2022-09-02T12:44:30;100625.13;;;29.86;25.55
3917;BME280;1973;50.518;7.318;2022-09-02T12:47:05;100612.88;;;29.94;25.86
3917;BME280;1973;50.518;7.318;2022-09-02T12:52:02;100607.28;;;30.18;25.91
3917;BME280;1973;50.518;7.318;2022-09-02T12:57:02;100602.09;;;30.32;25.49
3917;BME280;1973;50.518;7.318;2022-09-02T12:59:31;100610.00;;;30.27;25.31
3917;BME280;1973;50.518;7.318;2022-09-02T13:05:00;100603.31;;;29.99;25.58
3917;BME280;1973;50.518;7.318;2022-09-02T13:07:50;100594.88;;;29.90;24.83
3917;BME280;1973;50.518;7.318;2022-09-02T13:24:38;100581.53;;;30.48;24.68
3917;BME280;1973;50.518;7.318;2022-09-02T13:27:32;100570.09;;;30.23;25.22
3917;BME280;1973;50.518;7.318;2022-09-02T13:32:55;100573.34;;;30.46;24.67
3917;BME280;1973;50.518;7.318;2022-09-02T13:35:26;100559.63;;;30.48;24.89
3917;BME280;1973;50.518;7.318;2022-09-02T13:37:58;100563.25;;;30.36;24.97
3917;BME280;1973;50.518;7.318;2022-09-02T13:40:28;100548.25;;;30.48;25.03
3917;BME280;1973;50.518;7.318;2022-09-02T13:42:58;100544.69;;;30.63;25.38
3917;BME280;1973;50.518;7.318;2022-09-02T13:45:34;100559.94;;;30.83;25.11
3917;BME280;1973;50.518;7.318;2022-09-02T13:48:06;100552.84;;;30.89;24.57
3917;BME280;1973;50.518;7.318;2022-09-02T13:50:35;100542.50;;;30.97;24.81
3917;BME280;1973;50.518;7.318;2022-09-02T13:53:04;100545.66;;;31.19;24.64
3917;BME280;1973;50.518;7.318;2022-09-02T13:55:54;100539.09;;;31.03;24.57
3917;BME280;1973;50.518;7.318;2022-09-02T13:58:33;100532.66;;;30.94;23.79
3917;BME280;1973;50.518;7.318;2022-09-02T14:01:32;100525.34;;;30.93;23.93
3917;BME280;1973;50.518;7.318;2022-09-02T14:04:05;100524.75;;;31.00;24.35
3917;BME280;1973;50.518;7.318;2022-09-02T14:06:37;100521.28;;;30.94;24.59
3917;BME280;1973;50.518;7.318;2022-09-02T14:09:09;100523.66;;;30.92;24.27
3917;BME280;1973;50.518;7.318;2022-09-02T14:11:40;100517.53;;;30.78;24.17
3917;BME280;1973;50.518;7.318;2022-09-02T14:14:14;100517.31;;;30.71;24.74
3917;BME280;1973;50.518;7.318;2022-09-02T14:16:41;100509.06;;;30.93;24.72
3917;BME280;1973;50.518;7.318;2022-09-02T14:19:09;100502.94;;;31.04;24.75
3917;BME280;1973;50.518;7.318;2022-09-02T14:21:43;100498.69;;;31.25;24.65
3917;BME280;1973;50.518;7.318;2022-09-02T14:24:12;100492.06;;;31.21;24.55
3917;BME280;1973;50.518;7.318;2022-09-02T14:26:45;100499.56;;;31.14;24.12
3917;BME280;1973;50.518;7.318;2022-09-02T14:29:14;100483.84;;;30.92;24.57
3917;BME280;1973;50.518;7.318;2022-09-02T14:31:42;100469.88;;;31.27;24.74
3917;BME280;1973;50.518;7.318;2022-09-02T14:34:30;100482.31;;;31.62;23.68
3917;BME280;1973;50.518;7.318;2022-09-02T14:36:58;100485.97;;;31.63;24.08
3917;BME280;1973;50.518;7.318;2022-09-02T14:39:24;100486.97;;;31.55;23.99
3917;BME280;1973;50.518;7.318;2022-09-02T14:41:52;100479.72;;;31.45;23.82
3917;BME280;1973;50.518;7.318;2022-09-02T14:44:27;100483.88;;;31.48;23.54
3917;BME280;1973;50.518;7.318;2022-09-02T14:47:03;100477.47;;;31.51;23.52
3917;BME280;1973;50.518;7.318;2022-09-02T14:49:34;100479.72;;;31.57;23.57
3917;BME280;1973;50.518;7.318;2022-09-02T14:52:09;100464.69;;;31.88;23.44
3917;BME280;1973;50.518;7.318;2022-09-02T14:54:45;100467.25;;;31.93;23.45
3917;BME280;1973;50.518;7.318;2022-09-02T14:57:25;100475.16;;;32.15;22.72
3917;BME280;1973;50.518;7.318;2022-09-02T15:00:08;100471.88;;;32.29;22.89
3917;BME280;1973;50.518;7.318;2022-09-02T15:02:41;100469.09;;;32.48;22.64
3917;BME280;1973;50.518;7.318;2022-09-02T15:05:10;100481.25;;;32.29;22.84
3917;BME280;1973;50.518;7.318;2022-09-02T15:07:40;100473.13;;;32.31;22.82
3917;BME280;1973;50.518;7.318;2022-09-02T15:10:07;100462.56;;;32.32;22.46
3917;BME280;1973;50.518;7.318;2022-09-02T15:12:48;100456.25;;;32.58;22.34
3917;BME280;1973;50.518;7.318;2022-09-02T15:15:16;100461.88;;;32.70;22.76
3917;BME280;1973;50.518;7.318;2022-09-02T15:17:42;100467.03;;;32.49;22.49
3917;BME280;1973;50.518;7.318;2022-09-02T15:20:09;100461.50;;;32.56;22.73